This is the latest recevied weather packets stored in our database for station/object TA3HRJ-12. If no packets are shown the sender has not sent any weather packets the latest 10 day(s).
| Time | Temp. | Humidity | Pressure | Rain* | Wind** | Luminosity | Snow |
|---|---|---|---|---|---|---|---|
| 1778000128 | 15.56° C | 41% | 1025.6 hPa | - | - | - | - |
| 1777999228 | 16.67° C | 38% | 1025.5 hPa | - | - | - | - |
| 1777998327 | 16.67° C | 37% | 1025.5 hPa | - | - | - | - |
| 1777997427 | 17.22° C | 35% | 1025.3 hPa | - | - | - | - |
| 1777996527 | 17.78° C | 33% | 1025.2 hPa | - | - | - | - |
| 1777995627 | 20° C | 30% | 1025.1 hPa | - | - | - | - |
| 1777994727 | 22.78° C | 26% | 1025 hPa | - | - | - | - |
| 1777993827 | 39.44° C | 11% | 1024.9 hPa | - | - | - | - |
| 1777992927 | 18.89° C | 34% | 1025.4 hPa | - | - | - | - |
| 1777992027 | 18.89° C | 33% | 1025.3 hPa | - | - | - | - |
| 1777991127 | 18.33° C | 34% | 1025.2 hPa | - | - | - | - |
| 1777989326 | 17.78° C | 34% | 1025.2 hPa | - | - | - | - |
| 1777988426 | 17.22° C | 36% | 1025.1 hPa | - | - | - | - |
| 1777987526 | 17.78° C | 34% | 1025.1 hPa | - | - | - | - |
| 1777986626 | 18.33° C | 33% | 1025.1 hPa | - | - | - | - |
| 1777985726 | 18.33° C | 36% | 1025.1 hPa | - | - | - | - |
| 1777984826 | 17.78° C | 36% | 1025.1 hPa | - | - | - | - |
| 1777983926 | 17.78° C | 34% | 1025.2 hPa | - | - | - | - |
| 1777983025 | 18.33° C | 32% | 1025.1 hPa | - | - | - | - |
| 1777982125 | 18.89° C | 32% | 1025 hPa | - | - | - | - |
| 1777981225 | 18.33° C | 32% | 1024.9 hPa | - | - | - | - |
| 1777980325 | 18.89° C | 31% | 1024.9 hPa | - | - | - | - |
| 1777979425 | 18.89° C | 30% | 1024.9 hPa | - | - | - | - |
| 1777978525 | 20.56° C | 29% | 1024.9 hPa | - | - | - | - |
| 1777977625 | 20.56° C | 29% | 1024.9 hPa | - | - | - | - |
* Rain since midnight (hover to see other rain measurements)
** Current wind speed in m/s (hover to see current wind gust speed)